KGMU/GMU METAR and TAF weather

Enter ICAO airport designator
Station Type Date Time Source
KGMU METAR 2022/12/05 13:53 UTC NOAA

KGMU 051353Z 04006KT 10SM BKN026 OVC033 07/01 A3020 RMK AO2 SLP227 T00670006


Station Type Date Time Source
KGMU Decoded METAR 2022/12/05 13:53 UTC NOAA

GREENVILLE DOWNTOWN AIRPORT , SC, United States (KGMU) 34-51N 82-21W 315M
Dec 05, 2022 - 08:53 AM EST / 2022.12.05 1353 UTC
Wind: from the NE (040 degrees) at 7 MPH (6 KT):0
Visibility: 10 mile(s):0
Sky conditions: overcast
Temperature: 44.1 F (6.7 C)
Dew Point: 33.1 F (0.6 C)
Relative Humidity: 65%
Pressure (altimeter): 30.2 in. Hg (1022 hPa)
ob: KGMU 051353Z 04006KT 10SM BKN026 OVC033 07/01 A3020 RMK AO2 SLP227 T00670006
cycle: 14

Station Type Date Time Source
KGMU TAF 2022/12/05 12:36 UTC NOAA

TAF KGMU 051135Z 0512/0612 03006KT P6SM SCT050 BKN080
FM051600 06006KT P6SM OVC030
FM051800 07005KT P6SM VCSH OVC015
FM052100 06005KT 4SM -RA BR OVC007
FM060100 06005KT 3SM -RA BR OVC004
FM060500 04004KT 2SM -RA BR OVC003

Example: see airport list